sensor_id;sensor_type;location;lat;lon;timestamp;P1;durP1;ratioP1;P2;durP2;ratioP2
44722;SDS011;30451;48.638;10.624;2022-08-18T00:02:13;1.90;;;1.50;;
44722;SDS011;30451;48.638;10.624;2022-08-18T00:04:44;1.77;;;1.40;;
44722;SDS011;30451;48.638;10.624;2022-08-18T00:07:12;1.83;;;1.40;;
44722;SDS011;30451;48.638;10.624;2022-08-18T00:09:40;1.83;;;1.52;;
44722;SDS011;30451;48.638;10.624;2022-08-18T00:12:08;1.88;;;1.50;;
44722;SDS011;30451;48.638;10.624;2022-08-18T00:14:38;2.40;;;1.50;;
44722;SDS011;30451;48.638;10.624;2022-08-18T00:17:04;2.42;;;1.60;;
44722;SDS011;30451;48.638;10.624;2022-08-18T00:19:30;1.98;;;1.52;;
44722;SDS011;30451;48.638;10.624;2022-08-18T00:21:55;1.70;;;1.30;;
44722;SDS011;30451;48.638;10.624;2022-08-18T00:24:22;1.80;;;1.40;;
44722;SDS011;30451;48.638;10.624;2022-08-18T00:26:49;2.15;;;1.52;;
44722;SDS011;30451;48.638;10.624;2022-08-18T00:29:14;2.15;;;1.70;;
44722;SDS011;30451;48.638;10.624;2022-08-18T00:31:40;2.25;;;1.70;;
44722;SDS011;30451;48.638;10.624;2022-08-18T00:34:05;2.25;;;1.58;;
44722;SDS011;30451;48.638;10.624;2022-08-18T00:36:32;2.72;;;1.80;;
44722;SDS011;30451;48.638;10.624;2022-08-18T00:38:59;1.90;;;1.48;;
44722;SDS011;30451;48.638;10.624;2022-08-18T00:41:25;2.13;;;1.50;;
44722;SDS011;30451;48.638;10.624;2022-08-18T00:43:52;1.73;;;1.38;;
44722;SDS011;30451;48.638;10.624;2022-08-18T00:46:20;1.75;;;1.40;;
44722;SDS011;30451;48.638;10.624;2022-08-18T00:48:51;2.42;;;1.50;;
44722;SDS011;30451;48.638;10.624;2022-08-18T00:51:20;2.40;;;1.70;;
44722;SDS011;30451;48.638;10.624;2022-08-18T00:54:01;2.28;;;1.58;;
44722;SDS011;30451;48.638;10.624;2022-08-18T00:56:51;2.00;;;1.50;;
44722;SDS011;30451;48.638;10.624;2022-08-18T01:01:52;1.70;;;1.35;;
44722;SDS011;30451;48.638;10.624;2022-08-18T01:04:25;2.00;;;1.50;;
44722;SDS011;30451;48.638;10.624;2022-08-18T01:06:57;1.83;;;1.40;;
44722;SDS011;30451;48.638;10.624;2022-08-18T01:09:28;2.80;;;1.48;;
44722;SDS011;30451;48.638;10.624;2022-08-18T01:11:53;2.15;;;1.55;;
44722;SDS011;30451;48.638;10.624;2022-08-18T01:14:20;1.80;;;1.40;;
44722;SDS011;30451;48.638;10.624;2022-08-18T01:16:46;2.08;;;1.52;;
44722;SDS011;30451;48.638;10.624;2022-08-18T01:19:45;2.00;;;1.50;;
44722;SDS011;30451;48.638;10.624;2022-08-18T01:22:37;2.65;;;1.50;;
44722;SDS011;30451;48.638;10.624;2022-08-18T01:25:28;1.70;;;1.40;;
44722;SDS011;30451;48.638;10.624;2022-08-18T01:28:13;1.55;;;1.35;;
44722;SDS011;30451;48.638;10.624;2022-08-18T01:30:46;2.15;;;1.60;;
44722;SDS011;30451;48.638;10.624;2022-08-18T01:33:23;1.65;;;1.40;;
44722;SDS011;30451;48.638;10.624;2022-08-18T01:35:56;2.25;;;1.58;;
44722;SDS011;30451;48.638;10.624;2022-08-18T01:38:24;1.58;;;1.40;;
44722;SDS011;30451;48.638;10.624;2022-08-18T01:40:50;1.80;;;1.45;;
44722;SDS011;30451;48.638;10.624;2022-08-18T01:43:18;1.80;;;1.38;;
44722;SDS011;30451;48.638;10.624;2022-08-18T01:45:44;2.00;;;1.50;;
44722;SDS011;30451;48.638;10.624;2022-08-18T01:48:11;1.90;;;1.50;;
44722;SDS011;30451;48.638;10.624;2022-08-18T01:50:37;1.98;;;1.50;;
44722;SDS011;30451;48.638;10.624;2022-08-18T01:53:05;2.15;;;1.63;;
44722;SDS011;30451;48.638;10.624;2022-08-18T01:55:32;1.85;;;1.40;;
44722;SDS011;30451;48.638;10.624;2022-08-18T01:58:02;1.95;;;1.50;;
44722;SDS011;30451;48.638;10.624;2022-08-18T02:00:28;2.00;;;1.60;;
44722;SDS011;30451;48.638;10.624;2022-08-18T02:02:55;1.98;;;1.50;;
44722;SDS011;30451;48.638;10.624;2022-08-18T02:05:22;2.80;;;1.58;;
44722;SDS011;30451;48.638;10.624;2022-08-18T02:07:54;1.90;;;1.40;;
44722;SDS011;30451;48.638;10.624;2022-08-18T02:10:20;2.28;;;1.60;;
44722;SDS011;30451;48.638;10.624;2022-08-18T02:12:46;2.25;;;1.42;;
44722;SDS011;30451;48.638;10.624;2022-08-18T02:15:11;2.20;;;1.50;;
44722;SDS011;30451;48.638;10.624;2022-08-18T02:17:38;2.17;;;1.40;;
44722;SDS011;30451;48.638;10.624;2022-08-18T02:20:06;1.73;;;1.35;;
44722;SDS011;30451;48.638;10.624;2022-08-18T02:22:33;1.80;;;1.48;;
44722;SDS011;30451;48.638;10.624;2022-08-18T02:24:58;1.95;;;1.50;;
44722;SDS011;30451;48.638;10.624;2022-08-18T02:27:25;1.85;;;1.30;;
44722;SDS011;30451;48.638;10.624;2022-08-18T02:29:52;2.38;;;1.60;;
44722;SDS011;30451;48.638;10.624;2022-08-18T02:32:18;2.22;;;1.50;;
44722;SDS011;30451;48.638;10.624;2022-08-18T02:34:43;2.10;;;1.40;;
44722;SDS011;30451;48.638;10.624;2022-08-18T02:37:09;2.13;;;1.55;;
44722;SDS011;30451;48.638;10.624;2022-08-18T02:39:35;2.50;;;1.60;;
44722;SDS011;30451;48.638;10.624;2022-08-18T02:42:03;2.25;;;1.60;;
44722;SDS011;30451;48.638;10.624;2022-08-18T02:44:29;1.98;;;1.38;;
44722;SDS011;30451;48.638;10.624;2022-08-18T02:46:56;1.98;;;1.50;;
44722;SDS011;30451;48.638;10.624;2022-08-18T02:49:21;2.08;;;1.55;;
44722;SDS011;30451;48.638;10.624;2022-08-18T02:51:48;1.70;;;1.30;;
44722;SDS011;30451;48.638;10.624;2022-08-18T02:54:15;1.73;;;1.40;;
44722;SDS011;30451;48.638;10.624;2022-08-18T02:56:42;1.83;;;1.52;;
44722;SDS011;30451;48.638;10.624;2022-08-18T02:59:10;2.00;;;1.50;;
44722;SDS011;30451;48.638;10.624;2022-08-18T03:01:40;2.42;;;1.60;;
44722;SDS011;30451;48.638;10.624;2022-08-18T03:04:09;1.80;;;1.40;;
44722;SDS011;30451;48.638;10.624;2022-08-18T03:06:39;2.08;;;1.48;;
44722;SDS011;30451;48.638;10.624;2022-08-18T03:09:06;1.80;;;1.42;;
44722;SDS011;30451;48.638;10.624;2022-08-18T03:11:33;2.45;;;1.48;;
44722;SDS011;30451;48.638;10.624;2022-08-18T03:13:59;2.00;;;1.50;;
44722;SDS011;30451;48.638;10.624;2022-08-18T03:16:25;2.22;;;1.60;;
44722;SDS011;30451;48.638;10.624;2022-08-18T03:18:51;1.92;;;1.60;;
44722;SDS011;30451;48.638;10.624;2022-08-18T03:21:18;2.22;;;1.58;;
44722;SDS011;30451;48.638;10.624;2022-08-18T03:26:13;2.10;;;1.40;;
44722;SDS011;30451;48.638;10.624;2022-08-18T03:28:42;2.40;;;1.60;;
44722;SDS011;30451;48.638;10.624;2022-08-18T03:31:10;2.28;;;1.40;;
44722;SDS011;30451;48.638;10.624;2022-08-18T03:33:38;2.22;;;1.52;;
44722;SDS011;30451;48.638;10.624;2022-08-18T03:36:16;1.45;;;1.30;;
44722;SDS011;30451;48.638;10.624;2022-08-18T03:38:44;2.60;;;1.60;;
44722;SDS011;30451;48.638;10.624;2022-08-18T03:41:11;1.83;;;1.33;;
44722;SDS011;30451;48.638;10.624;2022-08-18T03:43:39;1.77;;;1.30;;
44722;SDS011;30451;48.638;10.624;2022-08-18T03:46:06;2.58;;;1.55;;
44722;SDS011;30451;48.638;10.624;2022-08-18T03:48:37;1.77;;;1.40;;
44722;SDS011;30451;48.638;10.624;2022-08-18T03:53:40;1.80;;;1.50;;
44722;SDS011;30451;48.638;10.624;2022-08-18T03:56:06;1.60;;;1.40;;
44722;SDS011;30451;48.638;10.624;2022-08-18T03:58:50;2.10;;;1.50;;
44722;SDS011;30451;48.638;10.624;2022-08-18T04:01:19;2.50;;;1.40;;
44722;SDS011;30451;48.638;10.624;2022-08-18T04:03:49;1.63;;;1.35;;
44722;SDS011;30451;48.638;10.624;2022-08-18T04:06:18;1.40;;;1.30;;
44722;SDS011;30451;48.638;10.624;2022-08-18T04:08:47;1.88;;;1.38;;
44722;SDS011;30451;48.638;10.624;2022-08-18T04:11:15;2.05;;;1.50;;
44722;SDS011;30451;48.638;10.624;2022-08-18T04:13:41;2.25;;;1.50;;
44722;SDS011;30451;48.638;10.624;2022-08-18T04:16:07;1.77;;;1.48;;
44722;SDS011;30451;48.638;10.624;2022-08-18T04:18:34;1.88;;;1.48;;
44722;SDS011;30451;48.638;10.624;2022-08-18T04:21:03;1.73;;;1.45;;
44722;SDS011;30451;48.638;10.624;2022-08-18T04:23:32;1.50;;;1.30;;
44722;SDS011;30451;48.638;10.624;2022-08-18T04:25:59;1.88;;;1.40;;
44722;SDS011;30451;48.638;10.624;2022-08-18T04:28:26;2.30;;;1.40;;
44722;SDS011;30451;48.638;10.624;2022-08-18T04:30:51;1.80;;;1.40;;
44722;SDS011;30451;48.638;10.624;2022-08-18T04:33:18;1.80;;;1.30;;
44722;SDS011;30451;48.638;10.624;2022-08-18T04:35:44;1.77;;;1.40;;
44722;SDS011;30451;48.638;10.624;2022-08-18T04:38:10;1.73;;;1.40;;
44722;SDS011;30451;48.638;10.624;2022-08-18T04:40:37;1.70;;;1.50;;
44722;SDS011;30451;48.638;10.624;2022-08-18T04:43:05;1.92;;;1.40;;
44722;SDS011;30451;48.638;10.624;2022-08-18T04:45:35;2.00;;;1.38;;
44722;SDS011;30451;48.638;10.624;2022-08-18T04:48:04;1.57;;;1.40;;
44722;SDS011;30451;48.638;10.624;2022-08-18T04:50:30;2.00;;;1.60;;
44722;SDS011;30451;48.638;10.624;2022-08-18T04:52:56;1.88;;;1.30;;
44722;SDS011;30451;48.638;10.624;2022-08-18T04:55:45;1.88;;;1.30;;
44722;SDS011;30451;48.638;10.624;2022-08-18T04:58:12;2.08;;;1.55;;
44722;SDS011;30451;48.638;10.624;2022-08-18T05:00:40;2.15;;;1.60;;
44722;SDS011;30451;48.638;10.624;2022-08-18T05:03:07;1.70;;;1.30;;
44722;SDS011;30451;48.638;10.624;2022-08-18T05:05:34;1.58;;;1.35;;
44722;SDS011;30451;48.638;10.624;2022-08-18T05:08:00;2.13;;;1.50;;
44722;SDS011;30451;48.638;10.624;2022-08-18T05:10:25;2.03;;;1.45;;
44722;SDS011;30451;48.638;10.624;2022-08-18T05:12:51;2.15;;;1.50;;
44722;SDS011;30451;48.638;10.624;2022-08-18T05:15:17;1.85;;;1.42;;
44722;SDS011;30451;48.638;10.624;2022-08-18T05:17:43;1.70;;;1.50;;
44722;SDS011;30451;48.638;10.624;2022-08-18T05:20:09;1.52;;;1.38;;
44722;SDS011;30451;48.638;10.624;2022-08-18T05:22:38;1.80;;;1.50;;
44722;SDS011;30451;48.638;10.624;2022-08-18T05:25:09;2.25;;;1.55;;
44722;SDS011;30451;48.638;10.624;2022-08-18T05:27:37;2.15;;;1.50;;
44722;SDS011;30451;48.638;10.624;2022-08-18T05:30:04;1.70;;;1.40;;
44722;SDS011;30451;48.638;10.624;2022-08-18T05:32:32;1.85;;;1.30;;
44722;SDS011;30451;48.638;10.624;2022-08-18T05:35:01;2.00;;;1.42;;
44722;SDS011;30451;48.638;10.624;2022-08-18T05:40:43;2.08;;;1.50;;
44722;SDS011;30451;48.638;10.624;2022-08-18T05:43:13;2.00;;;1.45;;
44722;SDS011;30451;48.638;10.624;2022-08-18T05:45:41;2.58;;;1.52;;
44722;SDS011;30451;48.638;10.624;2022-08-18T05:48:07;1.98;;;1.60;;
44722;SDS011;30451;48.638;10.624;2022-08-18T05:50:33;2.38;;;1.55;;
44722;SDS011;30451;48.638;10.624;2022-08-18T05:53:05;2.00;;;1.45;;
44722;SDS011;30451;48.638;10.624;2022-08-18T05:55:42;1.63;;;1.40;;
44722;SDS011;30451;48.638;10.624;2022-08-18T05:58:37;1.80;;;1.40;;
44722;SDS011;30451;48.638;10.624;2022-08-18T06:01:14;1.75;;;1.33;;
44722;SDS011;30451;48.638;10.624;2022-08-18T06:03:51;1.58;;;1.38;;
44722;SDS011;30451;48.638;10.624;2022-08-18T06:06:21;1.83;;;1.40;;
44722;SDS011;30451;48.638;10.624;2022-08-18T06:11:40;1.90;;;1.40;;
44722;SDS011;30451;48.638;10.624;2022-08-18T06:14:07;1.70;;;1.30;;
44722;SDS011;30451;48.638;10.624;2022-08-18T06:19:13;1.63;;;1.30;;
44722;SDS011;30451;48.638;10.624;2022-08-18T06:40:41;1.90;;;1.50;;
44722;SDS011;30451;48.638;10.624;2022-08-18T06:43:08;1.58;;;1.40;;
44722;SDS011;30451;48.638;10.624;2022-08-18T06:45:38;1.70;;;1.27;;
44722;SDS011;30451;48.638;10.624;2022-08-18T06:48:24;1.98;;;1.50;;
44722;SDS011;30451;48.638;10.624;2022-08-18T06:50:56;2.00;;;1.40;;
44722;SDS011;30451;48.638;10.624;2022-08-18T06:56:26;2.15;;;1.50;;
44722;SDS011;30451;48.638;10.624;2022-08-18T07:01:44;1.80;;;1.38;;
44722;SDS011;30451;48.638;10.624;2022-08-18T07:10:00;1.67;;;1.38;;
44722;SDS011;30451;48.638;10.624;2022-08-18T07:12:27;2.00;;;1.67;;
44722;SDS011;30451;48.638;10.624;2022-08-18T07:14:55;2.47;;;1.95;;
44722;SDS011;30451;48.638;10.624;2022-08-18T07:17:25;2.85;;;2.38;;
44722;SDS011;30451;48.638;10.624;2022-08-18T07:19:57;4.65;;;4.18;;
44722;SDS011;30451;48.638;10.624;2022-08-18T07:25:30;3.50;;;3.08;;
44722;SDS011;30451;48.638;10.624;2022-08-18T07:28:02;3.83;;;3.28;;
44722;SDS011;30451;48.638;10.624;2022-08-18T07:30:30;4.68;;;4.18;;
44722;SDS011;30451;48.638;10.624;2022-08-18T07:35:53;4.20;;;3.75;;
44722;SDS011;30451;48.638;10.624;2022-08-18T07:38:25;4.70;;;3.40;;
44722;SDS011;30451;48.638;10.624;2022-08-18T07:46:06;3.70;;;3.15;;
44722;SDS011;30451;48.638;10.624;2022-08-18T07:48:37;3.92;;;3.00;;
44722;SDS011;30451;48.638;10.624;2022-08-18T07:54:01;4.50;;;3.78;;
44722;SDS011;30451;48.638;10.624;2022-08-18T07:59:21;4.55;;;3.40;;
44722;SDS011;30451;48.638;10.624;2022-08-18T08:01:54;3.00;;;2.47;;
44722;SDS011;30451;48.638;10.624;2022-08-18T08:07:15;3.10;;;2.80;;
44722;SDS011;30451;48.638;10.624;2022-08-18T08:18:32;3.85;;;3.10;;
44722;SDS011;30451;48.638;10.624;2022-08-18T08:21:08;3.58;;;3.13;;
44722;SDS011;30451;48.638;10.624;2022-08-18T08:29:08;3.60;;;2.70;;
44722;SDS011;30451;48.638;10.624;2022-08-18T08:31:55;2.97;;;2.50;;
44722;SDS011;30451;48.638;10.624;2022-08-18T08:37:29;3.70;;;2.60;;
44722;SDS011;30451;48.638;10.624;2022-08-18T08:40:05;2.75;;;2.15;;
44722;SDS011;30451;48.638;10.624;2022-08-18T08:48:00;4.28;;;2.67;;
44722;SDS011;30451;48.638;10.624;2022-08-18T08:54:04;3.08;;;2.38;;
44722;SDS011;30451;48.638;10.624;2022-08-18T08:56:38;3.53;;;2.42;;
44722;SDS011;30451;48.638;10.624;2022-08-18T08:59:12;2.92;;;2.30;;
44722;SDS011;30451;48.638;10.624;2022-08-18T09:04:42;3.13;;;2.25;;
44722;SDS011;30451;48.638;10.624;2022-08-18T09:23:31;2.50;;;2.10;;
44722;SDS011;30451;48.638;10.624;2022-08-18T09:29:12;2.53;;;1.88;;
44722;SDS011;30451;48.638;10.624;2022-08-18T09:31:40;2.70;;;2.00;;
44722;SDS011;30451;48.638;10.624;2022-08-18T09:37:20;3.20;;;2.10;;
44722;SDS011;30451;48.638;10.624;2022-08-18T09:42:55;2.55;;;2.00;;
44722;SDS011;30451;48.638;10.624;2022-08-18T09:48:01;2.72;;;2.10;;
44722;SDS011;30451;48.638;10.624;2022-08-18T09:50:50;2.50;;;1.80;;
44722;SDS011;30451;48.638;10.624;2022-08-18T09:53:36;2.58;;;2.00;;
44722;SDS011;30451;48.638;10.624;2022-08-18T10:04:41;2.15;;;1.77;;
44722;SDS011;30451;48.638;10.624;2022-08-18T10:07:19;2.95;;;1.88;;
44722;SDS011;30451;48.638;10.624;2022-08-18T10:12:42;2.83;;;2.00;;
44722;SDS011;30451;48.638;10.624;2022-08-18T10:18:27;2.55;;;2.00;;
44722;SDS011;30451;48.638;10.624;2022-08-18T10:21:13;3.10;;;2.10;;
44722;SDS011;30451;48.638;10.624;2022-08-18T10:23:53;2.97;;;1.92;;
44722;SDS011;30451;48.638;10.624;2022-08-18T10:37:10;2.40;;;1.98;;
44722;SDS011;30451;48.638;10.624;2022-08-18T10:42:09;3.05;;;2.25;;
44722;SDS011;30451;48.638;10.624;2022-08-18T10:44:39;3.17;;;2.20;;
44722;SDS011;30451;48.638;10.624;2022-08-18T10:47:08;2.60;;;1.95;;
44722;SDS011;30451;48.638;10.624;2022-08-18T10:49:54;2.42;;;1.95;;
44722;SDS011;30451;48.638;10.624;2022-08-18T11:00:13;2.30;;;1.73;;
44722;SDS011;30451;48.638;10.624;2022-08-18T11:05:10;2.60;;;2.03;;
44722;SDS011;30451;48.638;10.624;2022-08-18T11:07:38;2.47;;;1.90;;
44722;SDS011;30451;48.638;10.624;2022-08-18T11:10:42;2.40;;;1.83;;
44722;SDS011;30451;48.638;10.624;2022-08-18T11:16:06;2.72;;;1.90;;
44722;SDS011;30451;48.638;10.624;2022-08-18T11:19:05;2.80;;;2.00;;
44722;SDS011;30451;48.638;10.624;2022-08-18T11:21:38;2.33;;;1.80;;
44722;SDS011;30451;48.638;10.624;2022-08-18T11:24:12;1.95;;;1.75;;
44722;SDS011;30451;48.638;10.624;2022-08-18T11:26:45;2.28;;;1.80;;
44722;SDS011;30451;48.638;10.624;2022-08-18T11:32:15;2.15;;;1.80;;
44722;SDS011;30451;48.638;10.624;2022-08-18T11:35:00;2.28;;;1.83;;
44722;SDS011;30451;48.638;10.624;2022-08-18T11:42:58;2.15;;;1.90;;
44722;SDS011;30451;48.638;10.624;2022-08-18T11:50:57;2.30;;;1.70;;
44722;SDS011;30451;48.638;10.624;2022-08-18T11:58:42;2.55;;;1.77;;
44722;SDS011;30451;48.638;10.624;2022-08-18T12:04:15;2.50;;;2.00;;
44722;SDS011;30451;48.638;10.624;2022-08-18T12:09:18;2.65;;;1.80;;
44722;SDS011;30451;48.638;10.624;2022-08-18T12:11:56;2.40;;;2.03;;
44722;SDS011;30451;48.638;10.624;2022-08-18T12:17:19;2.35;;;1.90;;
44722;SDS011;30451;48.638;10.624;2022-08-18T12:19:45;2.35;;;1.90;;
44722;SDS011;30451;48.638;10.624;2022-08-18T12:22:15;2.25;;;1.85;;
44722;SDS011;30451;48.638;10.624;2022-08-18T12:24:42;2.58;;;2.08;;
44722;SDS011;30451;48.638;10.624;2022-08-18T12:27:09;2.45;;;1.80;;
44722;SDS011;30451;48.638;10.624;2022-08-18T12:32:04;2.40;;;1.70;;
44722;SDS011;30451;48.638;10.624;2022-08-18T12:34:30;2.22;;;1.90;;
44722;SDS011;30451;48.638;10.624;2022-08-18T12:36:57;2.42;;;2.00;;
44722;SDS011;30451;48.638;10.624;2022-08-18T12:41:53;2.60;;;1.90;;
44722;SDS011;30451;48.638;10.624;2022-08-18T12:44:19;3.30;;;1.80;;
44722;SDS011;30451;48.638;10.624;2022-08-18T12:46:45;2.55;;;1.90;;
44722;SDS011;30451;48.638;10.624;2022-08-18T12:49:16;2.10;;;1.83;;
44722;SDS011;30451;48.638;10.624;2022-08-18T12:51:44;2.50;;;2.10;;
44722;SDS011;30451;48.638;10.624;2022-08-18T12:54:10;2.10;;;1.80;;
44722;SDS011;30451;48.638;10.624;2022-08-18T12:56:36;2.00;;;1.73;;
44722;SDS011;30451;48.638;10.624;2022-08-18T12:59:03;3.08;;;2.00;;
44722;SDS011;30451;48.638;10.624;2022-08-18T13:01:30;2.85;;;1.98;;
44722;SDS011;30451;48.638;10.624;2022-08-18T13:03:59;2.13;;;1.70;;
44722;SDS011;30451;48.638;10.624;2022-08-18T13:06:26;2.13;;;1.65;;
44722;SDS011;30451;48.638;10.624;2022-08-18T13:08:52;2.28;;;1.80;;
44722;SDS011;30451;48.638;10.624;2022-08-18T13:11:19;2.47;;;1.90;;
44722;SDS011;30451;48.638;10.624;2022-08-18T13:13:46;2.72;;;1.70;;
44722;SDS011;30451;48.638;10.624;2022-08-18T13:16:12;2.30;;;1.90;;
44722;SDS011;30451;48.638;10.624;2022-08-18T13:18:38;2.40;;;1.85;;
44722;SDS011;30451;48.638;10.624;2022-08-18T13:21:08;2.65;;;1.90;;
44722;SDS011;30451;48.638;10.624;2022-08-18T13:23:35;2.78;;;1.90;;
44722;SDS011;30451;48.638;10.624;2022-08-18T13:26:01;2.67;;;2.20;;
44722;SDS011;30451;48.638;10.624;2022-08-18T13:28:29;2.38;;;1.77;;
44722;SDS011;30451;48.638;10.624;2022-08-18T13:30:56;2.50;;;1.90;;
44722;SDS011;30451;48.638;10.624;2022-08-18T13:33:21;2.10;;;1.75;;
44722;SDS011;30451;48.638;10.624;2022-08-18T13:35:47;2.85;;;2.00;;
44722;SDS011;30451;48.638;10.624;2022-08-18T13:38:14;2.38;;;2.00;;
44722;SDS011;30451;48.638;10.624;2022-08-18T13:40:42;2.35;;;1.85;;
44722;SDS011;30451;48.638;10.624;2022-08-18T13:43:09;2.22;;;1.70;;
44722;SDS011;30451;48.638;10.624;2022-08-18T13:45:35;2.40;;;1.92;;
44722;SDS011;30451;48.638;10.624;2022-08-18T13:48:01;2.38;;;1.70;;
44722;SDS011;30451;48.638;10.624;2022-08-18T13:50:27;2.40;;;1.88;;
44722;SDS011;30451;48.638;10.624;2022-08-18T13:52:52;2.17;;;1.65;;
44722;SDS011;30451;48.638;10.624;2022-08-18T13:55:18;2.65;;;2.00;;
44722;SDS011;30451;48.638;10.624;2022-08-18T13:57:45;2.15;;;1.70;;
44722;SDS011;30451;48.638;10.624;2022-08-18T14:00:18;2.83;;;2.03;;
44722;SDS011;30451;48.638;10.624;2022-08-18T14:02:46;2.90;;;1.98;;
44722;SDS011;30451;48.638;10.624;2022-08-18T14:07:41;2.38;;;1.85;;
44722;SDS011;30451;48.638;10.624;2022-08-18T14:10:07;2.50;;;1.90;;
44722;SDS011;30451;48.638;10.624;2022-08-18T14:12:34;2.33;;;1.80;;
44722;SDS011;30451;48.638;10.624;2022-08-18T14:15:02;2.35;;;1.70;;
44722;SDS011;30451;48.638;10.624;2022-08-18T14:19:56;2.13;;;1.80;;
44722;SDS011;30451;48.638;10.624;2022-08-18T14:22:41;2.08;;;1.80;;
44722;SDS011;30451;48.638;10.624;2022-08-18T14:25:25;2.45;;;1.70;;
44722;SDS011;30451;48.638;10.624;2022-08-18T14:28:08;2.30;;;1.80;;
44722;SDS011;30451;48.638;10.624;2022-08-18T14:30:35;2.13;;;1.60;;
44722;SDS011;30451;48.638;10.624;2022-08-18T14:33:03;2.67;;;1.92;;
44722;SDS011;30451;48.638;10.624;2022-08-18T14:35:31;2.75;;;1.90;;
44722;SDS011;30451;48.638;10.624;2022-08-18T14:37:57;2.45;;;2.00;;
44722;SDS011;30451;48.638;10.624;2022-08-18T14:40:25;2.30;;;1.90;;
44722;SDS011;30451;48.638;10.624;2022-08-18T14:42:52;2.47;;;1.70;;
44722;SDS011;30451;48.638;10.624;2022-08-18T14:45:17;2.40;;;1.98;;
44722;SDS011;30451;48.638;10.624;2022-08-18T14:47:43;2.80;;;1.92;;
44722;SDS011;30451;48.638;10.624;2022-08-18T14:50:09;2.30;;;1.77;;
44722;SDS011;30451;48.638;10.624;2022-08-18T14:52:37;2.65;;;1.77;;
44722;SDS011;30451;48.638;10.624;2022-08-18T14:55:04;2.05;;;1.65;;
44722;SDS011;30451;48.638;10.624;2022-08-18T14:57:31;2.83;;;1.88;;
44722;SDS011;30451;48.638;10.624;2022-08-18T14:59:56;2.58;;;2.10;;
44722;SDS011;30451;48.638;10.624;2022-08-18T15:02:22;2.33;;;1.80;;
44722;SDS011;30451;48.638;10.624;2022-08-18T15:04:48;2.95;;;1.83;;
44722;SDS011;30451;48.638;10.624;2022-08-18T15:07:13;2.83;;;1.75;;
44722;SDS011;30451;48.638;10.624;2022-08-18T15:09:39;2.40;;;1.80;;
44722;SDS011;30451;48.638;10.624;2022-08-18T15:12:04;2.28;;;1.70;;
44722;SDS011;30451;48.638;10.624;2022-08-18T15:14:31;2.53;;;1.90;;
44722;SDS011;30451;48.638;10.624;2022-08-18T15:16:58;2.20;;;1.70;;
44722;SDS011;30451;48.638;10.624;2022-08-18T15:19:25;2.65;;;1.77;;
44722;SDS011;30451;48.638;10.624;2022-08-18T15:21:51;2.13;;;1.63;;
44722;SDS011;30451;48.638;10.624;2022-08-18T15:24:38;2.20;;;1.70;;
44722;SDS011;30451;48.638;10.624;2022-08-18T15:27:28;2.35;;;1.75;;
44722;SDS011;30451;48.638;10.624;2022-08-18T15:30:00;2.40;;;1.90;;
44722;SDS011;30451;48.638;10.624;2022-08-18T15:32:26;2.20;;;1.90;;
44722;SDS011;30451;48.638;10.624;2022-08-18T15:34:52;3.33;;;1.70;;
44722;SDS011;30451;48.638;10.624;2022-08-18T15:37:18;2.63;;;1.98;;
44722;SDS011;30451;48.638;10.624;2022-08-18T15:39:44;2.25;;;1.85;;
44722;SDS011;30451;48.638;10.624;2022-08-18T15:42:10;2.50;;;1.80;;
44722;SDS011;30451;48.638;10.624;2022-08-18T15:44:36;2.40;;;1.70;;
44722;SDS011;30451;48.638;10.624;2022-08-18T15:47:02;2.60;;;1.80;;
44722;SDS011;30451;48.638;10.624;2022-08-18T15:49:28;2.63;;;1.80;;
44722;SDS011;30451;48.638;10.624;2022-08-18T15:51:55;2.50;;;1.92;;
44722;SDS011;30451;48.638;10.624;2022-08-18T15:54:21;2.50;;;1.80;;
44722;SDS011;30451;48.638;10.624;2022-08-18T15:56:47;2.30;;;1.80;;
44722;SDS011;30451;48.638;10.624;2022-08-18T15:59:13;2.50;;;2.00;;
44722;SDS011;30451;48.638;10.624;2022-08-18T16:01:38;2.40;;;1.70;;
44722;SDS011;30451;48.638;10.624;2022-08-18T16:04:04;2.20;;;1.88;;
44722;SDS011;30451;48.638;10.624;2022-08-18T16:06:32;2.38;;;1.85;;
44722;SDS011;30451;48.638;10.624;2022-08-18T16:08:59;2.22;;;1.92;;
44722;SDS011;30451;48.638;10.624;2022-08-18T16:11:26;2.60;;;1.70;;
44722;SDS011;30451;48.638;10.624;2022-08-18T16:13:51;2.72;;;1.92;;
44722;SDS011;30451;48.638;10.624;2022-08-18T16:16:18;2.33;;;1.88;;
44722;SDS011;30451;48.638;10.624;2022-08-18T16:18:46;2.90;;;1.80;;
44722;SDS011;30451;48.638;10.624;2022-08-18T16:21:14;2.38;;;1.77;;
44722;SDS011;30451;48.638;10.624;2022-08-18T16:23:43;2.40;;;1.70;;
44722;SDS011;30451;48.638;10.624;2022-08-18T16:26:11;2.72;;;1.90;;
44722;SDS011;30451;48.638;10.624;2022-08-18T16:28:43;2.08;;;1.50;;
44722;SDS011;30451;48.638;10.624;2022-08-18T16:31:10;2.35;;;1.90;;
44722;SDS011;30451;48.638;10.624;2022-08-18T16:33:40;2.47;;;1.67;;
44722;SDS011;30451;48.638;10.624;2022-08-18T16:36:07;2.55;;;1.95;;
44722;SDS011;30451;48.638;10.624;2022-08-18T16:38:35;2.30;;;1.80;;
44722;SDS011;30451;48.638;10.624;2022-08-18T16:41:05;2.08;;;1.63;;
44722;SDS011;30451;48.638;10.624;2022-08-18T16:43:33;2.38;;;1.88;;
44722;SDS011;30451;48.638;10.624;2022-08-18T16:46:01;2.40;;;1.70;;
44722;SDS011;30451;48.638;10.624;2022-08-18T16:48:28;2.60;;;1.90;;
44722;SDS011;30451;48.638;10.624;2022-08-18T16:50:54;2.40;;;1.92;;
44722;SDS011;30451;48.638;10.624;2022-08-18T16:53:20;2.00;;;1.63;;
44722;SDS011;30451;48.638;10.624;2022-08-18T16:55:46;2.55;;;1.70;;
44722;SDS011;30451;48.638;10.624;2022-08-18T16:58:12;2.60;;;1.98;;
44722;SDS011;30451;48.638;10.624;2022-08-18T17:00:56;4.38;;;1.95;;
44722;SDS011;30451;48.638;10.624;2022-08-18T17:03:40;2.72;;;1.75;;
44722;SDS011;30451;48.638;10.624;2022-08-18T17:06:24;3.47;;;2.28;;
44722;SDS011;30451;48.638;10.624;2022-08-18T17:08:55;2.45;;;1.67;;
44722;SDS011;30451;48.638;10.624;2022-08-18T17:11:23;3.00;;;1.90;;
44722;SDS011;30451;48.638;10.624;2022-08-18T17:13:54;2.95;;;2.15;;
44722;SDS011;30451;48.638;10.624;2022-08-18T17:16:22;3.45;;;1.90;;
44722;SDS011;30451;48.638;10.624;2022-08-18T17:18:50;3.22;;;2.15;;
44722;SDS011;30451;48.638;10.624;2022-08-18T17:21:19;2.05;;;1.75;;
44722;SDS011;30451;48.638;10.624;2022-08-18T17:23:47;2.90;;;2.00;;
44722;SDS011;30451;48.638;10.624;2022-08-18T17:26:21;3.40;;;2.00;;
44722;SDS011;30451;48.638;10.624;2022-08-18T17:29:18;3.17;;;2.03;;
44722;SDS011;30451;48.638;10.624;2022-08-18T17:32:06;3.22;;;2.10;;
44722;SDS011;30451;48.638;10.624;2022-08-18T17:34:38;2.67;;;1.98;;
44722;SDS011;30451;48.638;10.624;2022-08-18T17:37:11;3.78;;;1.92;;
44722;SDS011;30451;48.638;10.624;2022-08-18T17:39:42;2.75;;;2.03;;
44722;SDS011;30451;48.638;10.624;2022-08-18T17:42:14;2.30;;;1.77;;
44722;SDS011;30451;48.638;10.624;2022-08-18T17:47:50;2.72;;;1.80;;
44722;SDS011;30451;48.638;10.624;2022-08-18T17:50:37;2.70;;;1.90;;
44722;SDS011;30451;48.638;10.624;2022-08-18T17:53:26;2.17;;;1.70;;
44722;SDS011;30451;48.638;10.624;2022-08-18T17:56:17;2.50;;;2.08;;
44722;SDS011;30451;48.638;10.624;2022-08-18T17:58:54;2.70;;;2.10;;
44722;SDS011;30451;48.638;10.624;2022-08-18T18:01:28;3.03;;;2.08;;
44722;SDS011;30451;48.638;10.624;2022-08-18T18:03:55;2.83;;;2.33;;
44722;SDS011;30451;48.638;10.624;2022-08-18T18:08:54;3.25;;;2.40;;
44722;SDS011;30451;48.638;10.624;2022-08-18T18:13:50;2.60;;;2.38;;
44722;SDS011;30451;48.638;10.624;2022-08-18T18:18:57;2.97;;;2.42;;
44722;SDS011;30451;48.638;10.624;2022-08-18T18:21:26;4.45;;;3.00;;
44722;SDS011;30451;48.638;10.624;2022-08-18T18:26:44;3.47;;;2.35;;